Time;durP1;ratioP1;P1;durP2;ratioP2;P2;SDS_P1;SDS_P2;PMS_P1;PMS_P2;Temp;Humidity;BMP_temperature;BMP_pressure;BME280_temperature;BME280_humidity;BME280_pressure;Samples;Min_cycle;Max_cycle;Signal;HPM_P1;HPM_P2
2023/06/15 00:02:13;;;;;;;4.50;3.40;;;19.30;15.00;;;;;;5036344;28;20454;-82
2023/06/15 00:04:40;;;;;;;10.27;3.43;;;19.30;15.30;;;;;;5037609;28;20471;-80
2023/06/15 00:07:06;;;;;;;5.30;3.20;;;19.40;16.00;;;;;;5032221;28;20438;-82
2023/06/15 00:09:31;;;;;;;6.80;3.37;;;19.40;16.40;;;;;;5047699;28;20533;-81
2023/06/15 00:11:57;;;;;;;5.97;3.57;;;19.30;17.00;;;;;;5038798;28;20186;-82
2023/06/15 00:14:22;;;;;;;4.87;3.43;;;19.30;17.40;;;;;;5040326;28;20199;-80
2023/06/15 00:16:52;;;;;;;8.33;3.53;;;19.30;17.60;;;;;;5034399;28;20287;-81
2023/06/15 00:19:18;;;;;;;6.43;3.10;;;19.30;18.40;;;;;;5034438;28;20297;-81
2023/06/15 00:21:44;;;;;;;11.43;4.20;;;19.30;18.80;;;;;;5031701;28;20440;-81
2023/06/15 00:24:10;;;;;;;8.00;4.17;;;19.20;19.40;;;;;;5033080;28;20478;-81
2023/06/15 00:26:36;;;;;;;5.40;4.00;;;19.20;19.10;;;;;;5035488;28;20183;-82
2023/06/15 00:29:02;;;;;;;3.27;2.93;;;19.20;19.60;;;;;;5035152;28;20229;-81
2023/06/15 00:31:28;;;;;;;5.83;3.23;;;19.20;20.20;;;;;;5040074;28;20460;-81
2023/06/15 00:33:53;;;;;;;8.87;3.70;;;19.20;20.60;;;;;;5048285;28;21038;-81
2023/06/15 00:36:19;;;;;;;4.87;3.20;;;19.20;20.70;;;;;;5040161;28;20810;-81
2023/06/15 00:38:45;;;;;;;4.87;3.27;;;19.20;21.40;;;;;;5038253;28;20204;-82
2023/06/15 00:41:10;;;;;;;6.00;4.27;;;19.20;21.80;;;;;;5032065;28;20193;-82
2023/06/15 00:43:36;;;;;;;5.20;3.47;;;19.10;32.40;;;;;;5047733;28;20213;-81
2023/06/15 00:46:04;;;;;;;8.70;4.37;;;19.10;22.70;;;;;;5043660;28;20676;-81
2023/06/15 00:48:30;;;;;;;7.70;3.80;;;19.00;23.10;;;;;;5039645;28;20698;-82
2023/06/15 00:50:56;;;;;;;5.00;3.93;;;19.00;23.50;;;;;;5035032;28;20607;-79
2023/06/15 00:53:22;;;;;;;5.03;3.43;;;19.00;24.10;;;;;;5049818;28;20509;-80
2023/06/15 00:55:48;;;;;;;5.23;3.37;;;18.90;24.60;;;;;;5032115;28;20211;-81
2023/06/15 00:58:16;;;;;;;6.90;3.80;;;18.90;25.00;;;;;;5038227;28;20216;-80
2023/06/15 01:00:41;;;;;;;5.57;3.70;;;18.80;25.50;;;;;;5040070;28;20443;-80
2023/06/15 01:03:07;;;;;;;9.17;3.97;;;18.80;26.30;;;;;;5031357;28;20529;-79
2023/06/15 01:05:36;;;;;;;7.33;4.03;;;18.80;26.90;;;;;;5043985;28;20184;-80
2023/06/15 01:08:08;;;;;;;4.17;3.40;;;18.80;26.50;;;;;;5046212;28;20189;-81
2023/06/15 01:10:35;;;;;;;8.57;3.80;;;18.80;26.70;;;;;;5044632;28;20787;-79
2023/06/15 01:13:03;;;;;;;9.37;3.83;;;18.80;27.00;;;;;;5044862;28;20438;-81
2023/06/15 01:15:28;;;;;;;10.13;4.23;;;18.70;27.60;;;;;;5033238;28;21046;-80
2023/06/15 01:17:59;;;;;;;8.00;4.53;;;18.70;27.80;;;;;;5044075;28;20459;-80
2023/06/15 01:20:30;;;;;;;6.93;3.60;;;18.70;28.60;;;;;;5037950;28;20196;-81
2023/06/15 01:23:01;;;;;;;5.70;3.87;;;18.70;29.00;;;;;;5042216;28;20422;-81
2023/06/15 01:25:36;;;;;;;4.77;3.43;;;18.60;29.50;;;;;;5041585;28;20499;-82
2023/06/15 01:28:05;;;;;;;17.33;4.67;;;18.50;29.30;;;;;;5038750;28;20514;-81
2023/06/15 01:30:35;;;;;;;4.00;3.60;;;18.50;30.10;;;;;;5053220;28;20459;-81
2023/06/15 01:33:01;;;;;;;8.17;4.17;;;18.50;30.30;;;;;;5039748;28;20448;-82
2023/06/15 01:35:26;;;;;;;6.70;3.47;;;18.40;31.30;;;;;;5045437;28;20434;-81
2023/06/15 01:37:52;;;;;;;9.13;4.97;;;18.40;32.50;;;;;;5040301;28;20175;-81
2023/06/15 01:40:18;;;;;;;7.30;4.70;;;18.40;33.50;;;;;;5037364;28;20233;-82
2023/06/15 01:42:44;;;;;;;7.93;4.50;;;18.40;34.40;;;;;;5044450;28;21946;-81
2023/06/15 01:45:11;;;;;;;6.87;4.00;;;18.30;35.10;;;;;;5042642;28;20226;-81
2023/06/15 01:47:39;;;;;;;11.83;6.20;;;18.30;36.10;;;;;;5040791;28;20443;-81
2023/06/15 01:50:06;;;;;;;6.20;5.00;;;18.30;37.60;;;;;;5044196;28;20463;-81
2023/06/15 01:52:32;;;;;;;9.13;4.83;;;18.30;37.20;;;;;;5037306;28;20443;-82
2023/06/15 01:54:58;;;;;;;7.23;4.80;;;18.20;37.40;;;;;;5042001;28;21058;-81
2023/06/15 01:57:23;;;;;;;5.97;5.00;;;18.20;38.70;;;;;;5053161;28;20280;-80
2023/06/15 01:59:51;;;;;;;6.23;4.90;;;18.20;40.10;;;;;;5048207;28;20267;-81
2023/06/15 02:02:16;;;;;;;5.80;4.97;;;18.20;40.80;;;;;;5047995;28;20185;-80
2023/06/15 02:04:42;;;;;;;10.30;5.20;;;18.10;53.40;;;;;;5033375;28;20458;-82
2023/06/15 02:07:07;;;;;;;10.40;4.73;;;18.10;42.00;;;;;;5038386;28;20243;-81
2023/06/15 02:09:33;;;;;;;5.57;4.97;;;18.10;43.20;;;;;;5051685;28;20671;-82
2023/06/15 02:11:58;;;;;;;6.93;5.50;;;18.00;44.00;;;;;;5046075;28;20200;-81
2023/06/15 02:14:24;;;;;;;9.80;5.73;;;18.00;44.70;;;;;;5039938;28;20263;-81
2023/06/15 02:16:49;;;;;;;12.70;5.60;;;18.00;45.40;;;;;;5038768;28;20188;-81
2023/06/15 02:19:21;;;;;;;8.30;5.37;;;18.00;45.80;;;;;;5036421;28;20219;-81
2023/06/15 02:21:49;;;;;;;7.90;5.37;;;18.00;46.40;;;;;;5039707;28;20272;-80
2023/06/15 02:24:16;;;;;;;8.70;6.20;;;17.90;47.70;;;;;;5041198;28;20464;-82
2023/06/15 02:26:42;;;;;;;12.23;5.87;;;17.90;48.40;;;;;;5041435;28;20434;-81
2023/06/15 02:29:08;;;;;;;7.90;5.13;;;17.90;49.30;;;;;;5036366;28;20458;-82
2023/06/15 02:31:33;;;;;;;9.20;5.73;;;17.90;49.90;;;;;;5046021;28;20908;-81
2023/06/15 02:33:59;;;;;;;7.43;5.27;;;17.90;51.50;;;;;;5053303;28;20227;-81
2023/06/15 02:36:24;;;;;;;8.70;5.90;;;17.90;51.40;;;;;;5045629;28;20238;-80
2023/06/15 02:38:50;;;;;;;6.30;4.67;;;17.80;52.50;;;;;;5039212;28;20207;-79
2023/06/15 02:41:15;;;;;;;10.37;5.50;;;17.80;53.90;;;;;;5039328;28;20328;-80
2023/06/15 02:43:41;;;;;;;7.70;5.70;;;17.80;53.30;;;;;;5045482;28;20217;-82
2023/06/15 02:46:06;;;;;;;10.53;4.93;;;17.80;54.20;;;;;;5047538;28;20182;-81
2023/06/15 02:48:32;;;;;;;14.27;6.30;;;17.70;54.10;;;;;;5045637;28;20201;-81
2023/06/15 02:50:58;;;;;;;14.47;5.50;;;17.70;55.00;;;;;;5040319;28;20243;-81
2023/06/15 02:53:24;;;;;;;6.00;4.77;;;17.70;54.40;;;;;;5035282;28;21244;-81
2023/06/15 02:55:51;;;;;;;7.47;5.33;;;17.60;55.80;;;;;;5042520;28;20198;-79
2023/06/15 02:58:19;;;;;;;6.07;4.67;;;17.60;56.80;;;;;;5050007;28;20228;-81
2023/06/15 03:00:48;;;;;;;7.97;5.40;;;17.60;56.50;;;;;;5039820;28;20434;-82
2023/06/15 03:03:14;;;;;;;6.23;4.73;;;17.60;57.50;;;;;;5037329;28;20471;-82
2023/06/15 03:05:40;;;;;;;6.70;4.90;;;17.60;58.60;;;;;;5039550;28;21015;-80
2023/06/15 03:08:06;;;;;;;6.97;5.67;;;17.60;59.40;;;;;;5039528;28;20282;-80
2023/06/15 03:10:31;;;;;;;6.30;5.43;;;17.50;59.60;;;;;;5045809;28;20438;-81
2023/06/15 03:12:57;;;;;;;8.17;5.90;;;17.50;60.30;;;;;;5038868;28;20267;-81
2023/06/15 03:15:23;;;;;;;5.33;4.83;;;17.50;61.50;;;;;;5038462;28;20187;-81
2023/06/15 03:17:49;;;;;;;5.40;4.80;;;17.50;63.50;;;;;;5038412;28;20210;-81
2023/06/15 03:20:14;;;;;;;8.47;5.80;;;17.40;66.00;;;;;;5050668;28;20850;-81
2023/06/15 03:22:40;;;;;;;6.90;5.30;;;17.40;65.30;;;;;;5040371;28;20201;-81
2023/06/15 03:25:11;;;;;;;6.90;6.00;;;17.40;66.30;;;;;;5035996;28;20808;-79
2023/06/15 03:27:37;;;;;;;6.80;5.83;;;17.40;69.20;;;;;;5040108;28;20560;-81
2023/06/15 03:30:05;;;;;;;8.10;5.33;;;17.40;70.70;;;;;;5047390;28;20456;-81
2023/06/15 03:32:32;;;;;;;8.77;5.60;;;17.40;72.90;;;;;;5044915;28;20432;-80
2023/06/15 03:34:57;;;;;;;6.70;5.00;;;17.40;73.90;;;;;;5039138;28;20669;-81
2023/06/15 03:37:23;;;;;;;7.10;5.50;;;17.40;76.60;;;;;;5037875;28;20518;-81
2023/06/15 03:39:48;;;;;;;7.17;5.53;;;17.40;80.10;;;;;;5038616;28;20210;-81
2023/06/15 03:42:15;;;;;;;7.73;6.17;;;17.40;83.00;;;;;;5045185;28;20182;-80
2023/06/15 03:44:40;;;;;;;20.70;6.87;;;17.40;84.30;;;;;;5038959;28;20230;-81
2023/06/15 03:47:06;;;;;;;6.60;5.77;;;17.40;86.40;;;;;;5038061;28;20446;-81
2023/06/15 03:49:32;;;;;;;7.93;5.70;;;17.40;88.00;;;;;;5032894;28;20282;-81
2023/06/15 03:51:57;;;;;;;6.20;5.50;;;17.40;89.80;;;;;;5044516;28;20264;-81
2023/06/15 03:54:23;;;;;;;5.20;4.70;;;17.50;89.20;;;;;;5044122;28;20197;-81
2023/06/15 03:56:49;;;;;;;7.07;5.73;;;17.50;88.00;;;;;;5041166;28;20204;-79
2023/06/15 03:59:15;;;;;;;6.00;5.40;;;17.50;86.50;;;;;;5032482;28;20218;-82
2023/06/15 04:01:40;;;;;;;13.03;5.70;;;17.60;85.60;;;;;;5037096;28;20957;-79
2023/06/15 04:04:06;;;;;;;6.80;5.70;;;17.60;85.10;;;;;;5050655;28;20214;-81
2023/06/15 04:06:32;;;;;;;5.50;5.00;;;17.60;85.10;;;;;;5046721;28;20176;-80
2023/06/15 04:08:58;;;;;;;10.47;5.30;;;17.60;85.00;;;;;;5042123;28;20210;-82
2023/06/15 04:11:24;;;;;;;7.87;5.73;;;17.60;86.90;;;;;;5039096;28;20853;-81
2023/06/15 04:13:49;;;;;;;8.83;5.80;;;17.70;87.30;;;;;;5027844;28;20596;-81
2023/06/15 04:16:15;;;;;;;7.80;5.63;;;17.70;86.20;;;;;;5045342;28;20656;-81
2023/06/15 04:18:41;;;;;;;7.70;5.00;;;17.80;85.00;;;;;;5038805;28;20210;-81
2023/06/15 04:21:07;;;;;;;7.00;5.50;;;17.80;85.80;;;;;;5041068;28;20212;-80
2023/06/15 04:23:32;;;;;;;7.97;5.00;;;17.80;90.20;;;;;;5048270;28;20472;-82
2023/06/15 04:26:00;;;;;;;5.57;5.07;;;17.80;89.00;;;;;;5046922;28;20552;-82
2023/06/15 04:28:26;;;;;;;8.30;4.97;;;17.90;90.00;;;;;;5049227;28;20593;-80
2023/06/15 04:31:20;;;;;;;12.53;5.20;;;18.00;98.60;;;;;;5036564;28;20450;-81
2023/06/15 04:33:46;;;;;;;11.23;5.43;;;18.00;90.30;;;;;;5033006;28;20985;-79
2023/06/15 04:36:12;;;;;;;14.93;5.13;;;18.10;86.80;;;;;;5037934;28;20433;-80
2023/06/15 04:38:48;;;;;;;9.80;5.30;;;18.10;84.60;;;;;;5051787;28;20208;-81
2023/06/15 04:41:14;;;;;;;7.97;5.07;;;18.20;85.80;;;;;;5049450;28;20453;-81
2023/06/15 04:43:40;;;;;;;7.23;4.80;;;18.30;84.60;;;;;;5046330;28;20467;-81
2023/06/15 04:46:06;;;;;;;6.33;5.50;;;18.40;83.50;;;;;;5038923;28;20962;-82
2023/06/15 04:48:32;;;;;;;12.40;5.83;;;18.40;82.60;;;;;;5045874;28;20204;-82
2023/06/15 04:50:59;;;;;;;5.70;5.10;;;18.50;81.60;;;;;;5044312;28;20170;-82
2023/06/15 04:53:25;;;;;;;9.60;4.80;;;18.60;79.00;;;;;;5043316;28;20445;-81
2023/06/15 04:55:50;;;;;;;13.87;5.40;;;18.60;77.00;;;;;;5040001;28;20475;-82
2023/06/15 04:58:17;;;;;;;5.90;4.50;;;18.70;75.70;;;;;;5038019;28;20783;-81
2023/06/15 05:00:42;;;;;;;5.83;4.63;;;18.80;74.30;;;;;;5050409;28;20471;-81
2023/06/15 05:03:08;;;;;;;7.57;4.57;;;18.90;74.80;;;;;;5045723;28;20465;-81
2023/06/15 05:05:34;;;;;;;6.00;4.93;;;19.00;71.60;;;;;;5042973;28;20211;-80
2023/06/15 05:07:59;;;;;;;6.40;5.57;;;19.10;73.00;;;;;;5039103;28;20189;-81
2023/06/15 05:10:25;;;;;;;7.40;5.47;;;19.20;73.90;;;;;;5037781;28;20184;-81
2023/06/15 05:12:51;;;;;;;8.03;5.43;;;19.40;75.70;;;;;;5038668;28;20264;-81
2023/06/15 05:15:17;;;;;;;6.97;5.17;;;19.50;75.80;;;;;;5045723;28;20241;-81
2023/06/15 05:17:43;;;;;;;5.30;4.73;;;19.60;73.70;;;;;;5040339;28;20957;-80
2023/06/15 05:20:09;;;;;;;10.53;4.83;;;19.70;71.20;;;;;;5031818;28;20292;-79
2023/06/15 05:22:35;;;;;;;7.30;5.17;;;19.80;72.00;;;;;;5044533;28;20440;-80
2023/06/15 05:25:02;;;;;;;6.83;4.37;;;19.90;71.20;;;;;;5042401;28;20593;-81
2023/06/15 05:27:28;;;;;;;7.07;4.67;;;20.00;67.70;;;;;;5045396;28;20204;-82
2023/06/15 05:29:54;;;;;;;4.77;4.17;;;20.00;64.80;;;;;;5032014;28;20460;-79
2023/06/15 05:32:20;;;;;;;6.17;4.47;;;19.90;63.20;;;;;;5037252;28;20462;-82
2023/06/15 05:34:45;;;;;;;8.73;5.40;;;20.00;62.30;;;;;;5040602;28;20196;-81
2023/06/15 05:37:11;;;;;;;6.67;4.40;;;20.00;62.20;;;;;;5041085;28;20186;-81
2023/06/15 05:39:36;;;;;;;12.70;5.67;;;20.20;61.90;;;;;;5044051;28;20224;-81
2023/06/15 05:42:02;;;;;;;6.10;4.40;;;20.30;62.60;;;;;;5036767;28;20204;-82
2023/06/15 05:44:27;;;;;;;8.57;4.40;;;20.50;62.10;;;;;;5035665;28;20569;-81
2023/06/15 05:46:53;;;;;;;7.50;4.97;;;20.60;63.50;;;;;;5039174;28;20225;-82
2023/06/15 05:49:19;;;;;;;5.60;4.67;;;20.70;64.60;;;;;;5039478;28;20209;-79
2023/06/15 05:51:44;;;;;;;15.40;4.80;;;20.90;66.20;;;;;;5036966;28;20198;-80
2023/06/15 05:54:10;;;;;;;23.77;5.70;;;20.90;64.40;;;;;;5032465;28;20190;-80
2023/06/15 05:56:36;;;;;;;10.93;5.10;;;21.00;64.30;;;;;;5036464;28;20205;-82
2023/06/15 05:59:01;;;;;;;8.53;4.67;;;21.20;64.00;;;;;;5035616;28;20293;-83
2023/06/15 06:01:27;;;;;;;15.23;5.00;;;21.30;64.50;;;;;;5041277;28;20200;-81
2023/06/15 06:03:52;;;;;;;16.60;5.40;;;21.50;64.30;;;;;;5032483;28;20199;-81
2023/06/15 06:06:18;;;;;;;18.47;6.73;;;21.70;64.10;;;;;;5035153;28;20184;-82
2023/06/15 06:08:43;;;;;;;14.50;5.77;;;22.00;64.50;;;;;;5035823;28;20288;-81
2023/06/15 06:11:09;;;;;;;18.10;5.13;;;22.30;65.00;;;;;;5034200;28;20208;-79
2023/06/15 06:13:35;;;;;;;22.00;5.53;;;23.00;67.70;;;;;;5035167;28;20193;-78
2023/06/15 06:16:01;;;;;;;15.13;4.57;;;24.50;71.20;;;;;;5026377;28;20957;-81
2023/06/15 06:18:27;;;;;;;7.43;3.67;;;27.30;73.20;;;;;;5037929;28;20229;-81
2023/06/15 06:20:53;;;;;;;17.23;5.30;;;30.60;71.60;;;;;;5037712;28;20444;-83
2023/06/15 06:23:18;;;;;;;9.33;3.20;;;33.20;64.10;;;;;;5035652;28;20560;-82
2023/06/15 06:25:44;;;;;;;13.07;3.73;;;35.60;65.60;;;;;;5042901;28;20181;-82
2023/06/15 06:28:09;;;;;;;33.67;5.63;;;37.60;56.50;;;;;;5037835;28;20256;-82
2023/06/15 06:30:35;;;;;;;12.40;4.33;;;39.10;46.80;;;;;;5042820;28;20202;-82
2023/06/15 06:33:03;;;;;;;25.33;5.40;;;40.50;36.70;;;;;;5037503;28;20190;-83
2023/06/15 06:35:28;;;;;;;27.73;5.50;;;41.90;29.20;;;;;;5033960;28;20218;-83
2023/06/15 06:37:54;;;;;;;10.57;3.43;;;42.70;21.60;;;;;;5035656;28;20437;-80
2023/06/15 06:40:19;;;;;;;24.67;5.20;;;43.80;16.60;;;;;;5032432;28;20269;-82
2023/06/15 06:42:45;;;;;;;22.33;4.97;;;44.60;10.20;;;;;;5043291;28;20529;-82
2023/06/15 06:45:10;;;;;;;25.53;5.30;;;45.10;5.70;;;;;;5039310;28;20249;-82
2023/06/15 06:47:36;;;;;;;20.13;4.80;;;45.30;1.00;;;;;;5037622;28;20747;-82
2023/06/15 06:50:02;;;;;;;30.37;5.60;;;45.70;1.00;;;;;;5053527;28;20615;-81
2023/06/15 06:52:27;;;;;;;31.40;4.90;;;45.70;1.00;;;;;;5033945;28;20182;-80
2023/06/15 06:54:53;;;;;;;26.43;4.47;;;45.70;1.00;;;;;;5037591;28;21133;-82
2023/06/15 06:57:18;;;;;;;26.77;5.10;;;46.00;1.00;;;;;;5035971;28;20197;-81
2023/06/15 06:59:44;;;;;;;19.40;4.60;;;46.20;1.00;;;;;;5033973;28;20619;-80
2023/06/15 07:02:09;;;;;;;20.03;4.87;;;46.60;1.00;;;;;;5034772;28;20193;-81
2023/06/15 07:04:35;;;;;;;15.07;4.10;;;46.70;1.00;;;;;;5035611;28;20216;-81
2023/06/15 07:07:00;;;;;;;21.93;4.80;;;47.50;1.00;;;;;;5036541;28;20181;-82
2023/06/15 07:09:26;;;;;;;26.10;5.50;;;48.00;1.00;;;;;;5030457;28;20244;-82
2023/06/15 07:11:51;;;;;;;18.60;4.30;;;48.10;1.00;;;;;;5034999;28;20182;-80
2023/06/15 07:14:17;;;;;;;36.23;4.73;;;48.60;1.00;;;;;;5036332;28;20185;-81
2023/06/15 07:16:42;;;;;;;21.90;4.60;;;49.40;1.00;;;;;;5036554;28;20260;-80
2023/06/15 07:19:08;;;;;;;16.47;5.00;;;49.30;1.00;;;;;;5035078;28;20217;-82
2023/06/15 07:21:33;;;;;;;21.03;4.27;;;49.70;1.00;;;;;;5037170;28;20197;-80
2023/06/15 07:23:59;;;;;;;24.13;4.13;;;49.10;1.00;;;;;;5036574;28;20240;-80
2023/06/15 07:26:25;;;;;;;16.10;3.80;;;49.20;1.00;;;;;;5030440;28;20178;-82
2023/06/15 07:28:50;;;;;;;11.50;3.63;;;49.60;1.00;;;;;;5041899;28;20204;-84
2023/06/15 07:31:16;;;;;;;14.93;3.20;;;49.30;1.00;;;;;;5039814;28;20217;-83
2023/06/15 07:33:41;;;;;;;8.17;2.60;;;49.40;1.00;;;;;;5040512;28;20798;-82
2023/06/15 07:36:07;;;;;;;7.50;3.00;;;49.50;1.00;;;;;;5041520;28;20192;-81
2023/06/15 07:38:32;;;;;;;6.70;3.20;;;49.70;1.00;;;;;;5023214;28;20299;-82
2023/06/15 07:40:58;;;;;;;7.80;3.67;;;49.00;1.00;;;;;;5037663;28;20568;-80
2023/06/15 07:43:23;;;;;;;4.67;2.67;;;48.80;1.00;;;;;;5040488;28;20260;-82
2023/06/15 07:45:49;;;;;;;8.37;3.70;;;48.70;1.00;;;;;;5033425;28;20178;-83
2023/06/15 07:48:15;;;;;;;7.90;3.47;;;48.90;1.00;;;;;;5031320;28;20200;-80
2023/06/15 07:50:40;;;;;;;6.17;3.37;;;49.20;1.00;;;;;;5041386;28;21011;-82
2023/06/15 07:53:06;;;;;;;7.73;3.23;;;49.10;1.00;;;;;;5041374;28;20185;-83
2023/06/15 07:55:32;;;;;;;7.20;3.50;;;48.60;1.00;;;;;;5034106;28;20188;-84
2023/06/15 07:57:57;;;;;;;7.77;2.90;;;48.90;1.00;;;;;;5035595;28;20185;-83
2023/06/15 08:00:23;;;;;;;8.17;3.50;;;49.40;1.00;;;;;;5038530;28;20204;-83
2023/06/15 08:02:49;;;;;;;4.70;2.77;;;49.40;1.00;;;;;;5035194;28;20235;-82
2023/06/15 08:05:15;;;;;;;4.27;2.80;;;49.70;1.00;;;;;;5034223;28;20220;-83
2023/06/15 08:07:41;;;;;;;8.40;2.80;;;49.70;1.00;;;;;;5035550;28;20185;-82
2023/06/15 08:10:07;;;;;;;8.40;2.80;;;49.60;1.00;;;;;;5033203;28;20460;-82
2023/06/15 08:12:32;;;;;;;9.67;2.80;;;49.50;1.00;;;;;;5042244;28;20272;-83
2023/06/15 08:14:58;;;;;;;5.77;3.00;;;49.60;1.00;;;;;;5049770;28;20464;-80
2023/06/15 08:17:25;;;;;;;6.93;2.67;;;49.80;1.00;;;;;;5038845;28;20188;-80
2023/06/15 08:19:51;;;;;;;8.00;2.70;;;49.90;1.00;;;;;;5038935;28;20672;-82
2023/06/15 08:22:17;;;;;;;7.50;3.00;;;50.20;1.00;;;;;;5037935;28;20440;-83
2023/06/15 08:24:43;;;;;;;5.90;2.70;;;50.20;1.00;;;;;;5040054;28;20476;-83
2023/06/15 08:27:10;;;;;;;6.87;3.00;;;50.10;1.00;;;;;;5038369;28;20212;-83
2023/06/15 08:29:36;;;;;;;10.70;2.53;;;50.20;1.00;;;;;;5046563;28;20228;-83
2023/06/15 08:32:02;;;;;;;8.10;2.87;;;50.70;1.00;;;;;;5046935;28;20448;-83
2023/06/15 08:34:28;;;;;;;6.40;2.80;;;51.30;1.00;;;;;;5040423;28;20194;-82
2023/06/15 08:36:53;;;;;;;6.40;2.57;;;51.50;1.00;;;;;;5036312;28;20455;-81
2023/06/15 08:39:19;;;;;;;3.47;2.50;;;51.30;1.00;;;;;;5040219;28;20218;-81
2023/06/15 08:41:47;;;;;;;6.77;2.57;;;51.20;1.00;;;;;;5037920;28;20177;-82
2023/06/15 08:44:14;;;;;;;7.03;3.00;;;50.50;1.00;;;;;;5022083;28;20209;-81
2023/06/15 08:46:42;;;;;;;7.00;2.83;;;50.40;1.00;;;;;;5038266;28;20421;-80
2023/06/15 08:49:08;;;;;;;4.30;2.80;;;50.80;1.00;;;;;;5040717;28;20502;-81
2023/06/15 08:51:36;;;;;;;9.33;2.60;;;50.90;1.00;;;;;;5038183;28;20424;-82
2023/06/15 08:54:04;;;;;;;4.50;3.10;;;50.60;1.00;;;;;;5037437;28;20475;-81
2023/06/15 08:56:31;;;;;;;6.93;3.53;;;50.90;1.00;;;;;;5052202;28;20447;-83
2023/06/15 08:58:57;;;;;;;3.57;2.40;;;50.80;1.00;;;;;;5035298;28;20460;-83
2023/06/15 09:01:23;;;;;;;7.40;2.57;;;50.90;1.00;;;;;;5047945;28;20443;-83
2023/06/15 09:03:54;;;;;;;6.20;2.87;;;51.00;1.00;;;;;;5040092;28;20201;-83
2023/06/15 09:06:23;;;;;;;5.13;2.80;;;51.00;1.00;;;;;;5038091;28;20443;-82
2023/06/15 09:08:50;;;;;;;5.07;2.90;;;50.90;1.00;;;;;;5040690;28;21414;-81
2023/06/15 09:11:17;;;;;;;7.30;3.23;;;50.90;1.00;;;;;;5046662;28;20506;-82
2023/06/15 09:13:43;;;;;;;7.27;3.00;;;50.50;1.00;;;;;;5045778;28;20439;-80
2023/06/15 09:16:09;;;;;;;6.07;2.30;;;50.40;1.00;;;;;;5036581;28;20451;-81
2023/06/15 09:18:45;;;;;;;7.70;2.90;;;50.60;1.00;;;;;;5040700;28;20440;-81
2023/06/15 09:21:16;;;;;;;3.23;2.70;;;50.40;1.00;;;;;;5036709;28;20629;-82
2023/06/15 09:23:45;;;;;;;7.53;2.57;;;50.30;1.00;;;;;;5039336;28;20468;-82
2023/06/15 09:26:40;;;;;;;4.37;3.10;;;50.30;1.00;;;;;;5039203;28;20452;-82
2023/06/15 09:29:09;;;;;;;4.77;2.97;;;50.20;1.00;;;;;;5024234;28;20554;-82
2023/06/15 09:31:36;;;;;;;6.10;3.30;;;49.80;1.00;;;;;;5039523;28;20436;-82
2023/06/15 09:34:07;;;;;;;3.53;2.80;;;49.70;1.00;;;;;;5036272;28;20523;-81
2023/06/15 09:36:35;;;;;;;4.70;2.60;;;49.50;1.00;;;;;;5029528;28;20519;-82
2023/06/15 09:39:03;;;;;;;5.60;2.77;;;49.30;1.00;;;;;;5035863;28;20450;-83
2023/06/15 09:41:29;;;;;;;5.47;2.90;;;48.40;1.00;;;;;;5036862;28;21097;-81
2023/06/15 09:43:54;;;;;;;7.17;3.10;;;47.60;1.00;;;;;;5037911;28;20547;-81
2023/06/15 09:46:20;;;;;;;10.53;2.93;;;47.60;1.00;;;;;;5034532;28;20329;-82
2023/06/15 09:48:49;;;;;;;5.20;2.97;;;47.90;1.00;;;;;;5037902;28;20308;-82
2023/06/15 09:51:16;;;;;;;10.20;2.80;;;48.40;1.00;;;;;;5039164;28;20447;-80
2023/06/15 09:53:43;;;;;;;2.77;2.40;;;48.50;1.00;;;;;;5038708;28;20421;-81
2023/06/15 09:56:10;;;;;;;6.33;2.80;;;48.10;1.00;;;;;;5029423;28;20427;-81
2023/06/15 09:58:35;;;;;;;10.97;3.60;;;47.60;1.00;;;;;;5036121;28;20445;-81
2023/06/15 10:01:04;;;;;;;6.87;3.33;;;47.80;1.00;;;;;;5038323;28;20482;-82
2023/06/15 10:03:31;;;;;;;3.77;2.77;;;48.20;1.00;;;;;;5039294;28;20534;-80
2023/06/15 10:06:10;;;;;;;4.33;3.10;;;47.50;1.00;;;;;;5037448;28;20433;-80
2023/06/15 10:08:40;;;;;;;3.53;2.63;;;47.50;1.00;;;;;;5038900;28;20432;-81
2023/06/15 10:11:05;;;;;;;7.20;3.10;;;47.30;1.00;;;;;;5036377;28;20978;-79
2023/06/15 10:13:43;;;;;;;5.73;2.70;;;45.40;1.00;;;;;;5033256;28;20416;-81
2023/06/15 10:16:13;;;;;;;8.40;2.90;;;44.90;1.00;;;;;;5035690;28;20186;-81
2023/06/15 10:18:39;;;;;;;5.20;3.10;;;44.60;1.00;;;;;;5037691;28;20450;-79
2023/06/15 10:21:07;;;;;;;6.70;2.90;;;44.70;1.00;;;;;;5029425;28;20445;-82
2023/06/15 10:23:34;;;;;;;4.17;3.20;;;45.10;1.00;;;;;;5036037;28;20464;-81
2023/06/15 10:26:00;;;;;;;5.80;2.80;;;45.70;1.00;;;;;;5034964;28;20849;-79
2023/06/15 10:28:31;;;;;;;3.50;3.20;;;45.90;1.00;;;;;;5034453;28;20532;-80
2023/06/15 10:31:06;;;;;;;11.87;3.50;;;44.50;1.00;;;;;;5035892;28;20878;-79
2023/06/15 10:33:52;;;;;;;5.77;3.87;;;43.10;1.00;;;;;;5035559;28;20532;-83
2023/06/15 10:36:25;;;;;;;4.77;3.30;;;41.10;1.00;;;;;;5037842;28;20415;-80
2023/06/15 10:39:03;;;;;;;4.43;2.70;;;39.20;1.00;;;;;;5037997;28;20439;-81
2023/06/15 10:41:29;;;;;;;3.70;3.23;;;39.20;1.00;;;;;;5036301;28;20468;-82
2023/06/15 10:43:59;;;;;;;4.00;3.50;;;38.70;1.00;;;;;;5034243;28;21029;-82
2023/06/15 10:46:36;;;;;;;8.87;3.53;;;38.40;1.00;;;;;;5035830;28;20933;-81
2023/06/15 10:49:07;;;;;;;5.73;3.67;;;39.20;1.00;;;;;;5033805;28;20819;-82
2023/06/15 10:51:40;;;;;;;5.57;3.50;;;40.20;1.00;;;;;;5036796;28;20413;-81
2023/06/15 10:54:25;;;;;;;4.80;3.50;;;41.40;1.00;;;;;;5038238;28;20421;-82
2023/06/15 10:56:53;;;;;;;7.33;3.37;;;42.00;1.00;;;;;;5032236;28;20967;-80
2023/06/15 10:59:49;;;;;;;3.90;3.30;;;41.90;1.00;;;;;;5034915;28;20461;-81
2023/06/15 11:02:33;;;;;;;5.03;3.30;;;42.20;1.00;;;;;;5039633;28;20865;-81
2023/06/15 11:05:14;;;;;;;6.57;3.43;;;42.80;1.00;;;;;;5043099;28;20464;-82
2023/06/15 11:07:43;;;;;;;4.00;2.70;;;43.10;1.00;;;;;;5037758;28;20478;-81
2023/06/15 11:10:20;;;;;;;8.10;3.40;;;42.70;1.00;;;;;;5036961;28;20471;-82
2023/06/15 11:12:47;;;;;;;6.80;3.13;;;42.70;1.00;;;;;;5039843;28;20436;-82
2023/06/15 11:15:15;;;;;;;3.27;2.57;;;42.80;1.00;;;;;;5038469;28;20420;-82
2023/06/15 11:17:57;;;;;;;4.13;3.60;;;43.40;1.00;;;;;;5035281;28;20795;-82
2023/06/15 11:20:38;;;;;;;5.63;2.90;;;43.90;1.00;;;;;;5033827;28;20532;-83
2023/06/15 11:23:14;;;;;;;6.47;4.03;;;44.40;1.00;;;;;;5037176;28;20758;-83
2023/06/15 11:25:44;;;;;;;3.50;3.20;;;44.60;1.00;;;;;;5037705;28;20534;-82
2023/06/15 11:28:11;;;;;;;6.07;3.00;;;44.40;1.00;;;;;;5037610;28;20472;-83
2023/06/15 11:30:40;;;;;;;8.80;3.67;;;44.20;1.00;;;;;;5034314;28;20453;-81
2023/06/15 11:33:10;;;;;;;11.97;3.57;;;43.80;1.00;;;;;;5038437;28;20429;-82
2023/06/15 11:35:36;;;;;;;4.60;3.60;;;42.70;1.00;;;;;;5038748;28;20425;-82
2023/06/15 11:38:02;;;;;;;4.80;3.47;;;41.80;1.00;;;;;;5033355;28;20471;-83
2023/06/15 11:40:27;;;;;;;3.60;3.27;;;41.80;1.00;;;;;;5038452;28;20170;-82
2023/06/15 11:42:57;;;;;;;6.17;3.17;;;42.00;1.00;;;;;;5037421;28;20197;-82
2023/06/15 11:45:23;;;;;;;3.67;3.37;;;42.70;1.00;;;;;;5036674;28;20198;-82
2023/06/15 11:47:49;;;;;;;4.63;3.13;;;42.10;1.00;;;;;;5032061;28;20817;-81
2023/06/15 11:50:19;;;;;;;5.73;3.40;;;40.80;1.00;;;;;;5037045;28;20409;-82
2023/06/15 11:52:45;;;;;;;9.50;3.13;;;39.90;1.00;;;;;;5038643;28;20193;-82
2023/06/15 11:55:13;;;;;;;8.20;3.60;;;40.20;1.00;;;;;;5035737;28;20491;-81
2023/06/15 11:57:41;;;;;;;3.53;3.23;;;40.00;1.00;;;;;;5038187;28;20501;-82
2023/06/15 12:00:08;;;;;;;8.97;3.43;;;39.20;1.00;;;;;;5035398;28;20445;-83
2023/06/15 12:02:37;;;;;;;4.27;3.87;;;38.60;1.00;;;;;;5039606;28;20543;-83
2023/06/15 12:05:03;;;;;;;7.53;4.33;;;38.10;1.00;;;;;;5034494;28;20460;-84
2023/06/15 12:07:34;;;;;;;3.40;3.10;;;38.10;1.00;;;;;;5038591;28;20421;-83
2023/06/15 12:10:00;;;;;;;6.87;3.83;;;38.30;1.00;;;;;;5037116;28;20436;-81
2023/06/15 12:12:30;;;;;;;7.20;3.70;;;37.90;1.00;;;;;;5034142;28;20805;-83
2023/06/15 12:14:56;;;;;;;11.00;4.43;;;37.40;1.00;;;;;;5038034;28;20555;-83
2023/06/15 12:17:33;;;;;;;3.90;3.50;;;36.90;1.00;;;;;;5035815;28;20457;-83
2023/06/15 12:20:09;;;;;;;6.30;4.37;;;36.50;1.00;;;;;;5035054;28;20213;-81
2023/06/15 12:22:36;;;;;;;6.50;3.63;;;36.10;1.00;;;;;;5035369;28;20520;-82
2023/06/15 12:25:02;;;;;;;6.40;4.03;;;35.70;1.00;;;;;;5028838;28;21177;-80
2023/06/15 12:27:29;;;;;;;3.70;3.40;;;35.30;1.00;;;;;;5036664;28;20524;-82
2023/06/15 12:30:18;;;;;;;5.50;4.07;;;35.00;1.00;;;;;;5034073;28;20966;-82
2023/06/15 12:32:47;;;;;;;8.07;3.50;;;35.70;1.00;;;;;;5039609;28;20512;-83
2023/06/15 12:35:37;;;;;;;3.40;3.10;;;36.60;1.00;;;;;;5036699;28;20440;-82
2023/06/15 12:38:07;;;;;;;5.60;3.80;;;37.60;1.00;;;;;;5037454;28;20413;-83
2023/06/15 12:40:38;;;;;;;5.00;4.10;;;38.10;1.00;;;;;;5038270;28;20417;-83
2023/06/15 12:43:04;;;;;;;6.70;4.13;;;38.30;1.00;;;;;;5037588;28;20420;-83
2023/06/15 12:45:30;;;;;;;3.77;3.47;;;38.40;1.00;;;;;;5031277;28;20453;-81
2023/06/15 12:47:57;;;;;;;7.70;4.47;;;38.30;1.00;;;;;;5037290;28;20233;-82
2023/06/15 12:50:23;;;;;;;7.47;4.10;;;38.30;1.00;;;;;;5035997;28;20236;-81
2023/06/15 12:52:49;;;;;;;7.37;3.77;;;38.30;1.00;;;;;;5026851;28;20476;-84